createdAt,value
2023-12-30T00:01:00.520Z,8.95
2023-12-30T00:03:29.136Z,8.94
2023-12-30T00:05:57.694Z,8.90
2023-12-30T00:08:26.166Z,8.91
2023-12-30T00:10:54.669Z,8.92
2023-12-30T00:13:23.119Z,8.90
2023-12-30T00:15:53.003Z,8.86
2023-12-30T00:18:21.547Z,8.85
2023-12-30T00:20:50.109Z,8.88
2023-12-30T00:23:19.276Z,8.86
2023-12-30T00:25:47.823Z,8.90
2023-12-30T00:28:16.250Z,8.91
2023-12-30T00:30:44.760Z,8.87
2023-12-30T00:33:15.259Z,8.86
2023-12-30T00:35:44.325Z,8.89
2023-12-30T00:38:14.255Z,8.93
2023-12-30T00:40:43.736Z,8.94
2023-12-30T00:43:12.366Z,8.91
2023-12-30T00:45:40.832Z,8.94
2023-12-30T00:48:09.376Z,8.95
2023-12-30T00:50:39.253Z,8.97
2023-12-30T00:53:07.682Z,8.97
2023-12-30T00:55:36.160Z,8.97
2023-12-30T00:58:04.982Z,8.96
2023-12-30T01:00:33.565Z,8.95
2023-12-30T01:03:02.285Z,8.95
2023-12-30T01:05:30.870Z,8.98
2023-12-30T01:08:00.657Z,8.95
2023-12-30T01:10:29.345Z,8.95
2023-12-30T01:12:57.863Z,8.97
2023-12-30T01:15:26.505Z,8.95
2023-12-30T01:17:55.036Z,8.99
2023-12-30T01:20:23.572Z,8.96
2023-12-30T01:22:52.052Z,8.98
2023-12-30T01:25:22.065Z,9.02
2023-12-30T01:27:50.610Z,9.01
2023-12-30T01:30:19.269Z,9.03
2023-12-30T01:32:47.907Z,8.99
2023-12-30T01:35:17.030Z,8.92
2023-12-30T01:37:45.555Z,8.94
2023-12-30T01:40:14.384Z,8.91
2023-12-30T01:42:44.336Z,8.92
2023-12-30T01:45:13.274Z,8.91
2023-12-30T01:47:42.381Z,8.88
2023-12-30T01:50:12.764Z,8.86
2023-12-30T01:52:45.715Z,8.88
2023-12-30T01:55:14.739Z,8.85
2023-12-30T01:57:46.712Z,8.87
2023-12-30T02:00:22.271Z,8.79
2023-12-30T02:02:51.383Z,8.80
2023-12-30T02:05:20.186Z,8.83
2023-12-30T02:07:49.615Z,8.79
2023-12-30T02:10:18.218Z,8.80
2023-12-30T02:12:48.105Z,8.83
2023-12-30T02:15:18.760Z,8.81
2023-12-30T02:17:48.980Z,8.83
2023-12-30T02:20:18.022Z,8.79
2023-12-30T02:22:49.530Z,8.79
2023-12-30T02:25:18.661Z,8.73
2023-12-30T02:27:48.091Z,8.71
2023-12-30T02:30:17.551Z,8.74
2023-12-30T02:32:46.047Z,8.75
2023-12-30T02:35:14.609Z,8.73
2023-12-30T02:37:42.985Z,8.75
2023-12-30T02:40:13.901Z,8.76
2023-12-30T02:42:42.801Z,8.76
2023-12-30T02:45:13.768Z,8.78
2023-12-30T02:47:42.186Z,8.75
2023-12-30T02:50:11.682Z,8.74
2023-12-30T02:52:40.197Z,8.76
2023-12-30T02:55:09.285Z,8.79
2023-12-30T02:57:48.521Z,8.74
2023-12-30T03:00:19.810Z,8.74
2023-12-30T03:02:48.395Z,8.74
2023-12-30T03:05:17.447Z,8.77
2023-12-30T03:07:46.084Z,8.78
2023-12-30T03:10:14.742Z,8.76
2023-12-30T03:12:44.656Z,8.79
2023-12-30T03:15:13.107Z,8.82
2023-12-30T03:17:41.591Z,8.81
2023-12-30T03:20:11.799Z,8.82
2023-12-30T03:22:40.294Z,8.87
2023-12-30T03:25:09.830Z,8.86
2023-12-30T03:27:38.324Z,8.82
2023-12-30T03:30:10.222Z,8.83
2023-12-30T03:32:38.727Z,8.80
2023-12-30T03:35:08.788Z,8.84
2023-12-30T03:37:37.228Z,8.85
2023-12-30T03:40:07.514Z,8.85
2023-12-30T03:42:36.005Z,8.86
2023-12-30T03:45:06.068Z,8.86
2023-12-30T03:47:35.862Z,8.89
2023-12-30T03:50:04.991Z,8.87
2023-12-30T03:52:33.611Z,8.88
2023-12-30T03:55:02.271Z,8.88
2023-12-30T03:57:30.750Z,8.90
2023-12-30T03:59:59.473Z,8.92
2023-12-30T04:02:27.954Z,8.91
2023-12-30T04:04:57.867Z,8.90
2023-12-30T04:07:26.487Z,8.92
2023-12-30T04:09:55.058Z,8.91
2023-12-30T04:12:23.642Z,8.93
2023-12-30T04:14:52.164Z,8.90
2023-12-30T04:17:20.636Z,8.89
2023-12-30T04:19:52.230Z,8.89
2023-12-30T04:22:22.159Z,8.92
2023-12-30T04:24:50.728Z,8.95
2023-12-30T04:27:19.270Z,8.94
2023-12-30T04:29:47.705Z,8.94
2023-12-30T04:32:16.128Z,8.94
2023-12-30T04:34:44.732Z,8.96
2023-12-30T04:37:13.440Z,8.97
2023-12-30T04:39:43.306Z,8.92
2023-12-30T04:42:12.586Z,8.92
2023-12-30T04:44:41.131Z,8.90
2023-12-30T04:47:09.612Z,8.91
2023-12-30T04:49:38.668Z,8.92
2023-12-30T04:52:07.977Z,8.90
2023-12-30T04:54:36.437Z,8.90
2023-12-30T04:57:06.679Z,8.86
2023-12-30T04:59:37.421Z,8.87
2023-12-30T05:02:06.502Z,8.88
2023-12-30T05:04:35.042Z,8.88
2023-12-30T05:07:03.760Z,8.91
2023-12-30T05:09:32.523Z,8.95
2023-12-30T05:12:01.003Z,8.97
2023-12-30T05:14:30.757Z,8.94
2023-12-30T05:16:59.389Z,8.97
2023-12-30T05:19:27.883Z,8.97
2023-12-30T05:21:56.444Z,8.98
2023-12-30T05:24:24.966Z,8.96
2023-12-30T05:26:53.400Z,8.91
2023-12-30T05:29:21.885Z,8.98
2023-12-30T05:31:51.886Z,8.99
2023-12-30T05:34:20.473Z,9.00
2023-12-30T05:36:49.087Z,8.95
2023-12-30T05:39:17.653Z,8.95
2023-12-30T05:41:46.156Z,8.96
2023-12-30T05:44:14.769Z,8.95
2023-12-30T05:46:43.438Z,9.00
2023-12-30T05:49:13.473Z,8.98
2023-12-30T05:51:45.346Z,9.01
2023-12-30T05:54:14.405Z,9.03
2023-12-30T05:56:42.907Z,9.01
2023-12-30T05:59:11.347Z,9.04
2023-12-30T06:01:47.425Z,9.04
2023-12-30T06:04:17.626Z,9.06
2023-12-30T06:06:46.938Z,9.04
2023-12-30T06:09:15.422Z,9.08
2023-12-30T06:11:44.187Z,9.07
2023-12-30T06:14:12.845Z,9.05
2023-12-30T06:16:41.412Z,9.08
2023-12-30T06:19:10.457Z,9.07
2023-12-30T06:21:40.811Z,9.07
2023-12-30T06:24:09.387Z,9.04
2023-12-30T06:26:39.832Z,9.04
2023-12-30T06:29:10.168Z,8.96
2023-12-30T06:31:43.241Z,8.97
2023-12-30T06:34:12.162Z,8.98
2023-12-30T06:36:44.608Z,8.95
2023-12-30T06:39:14.135Z,9.01
2023-12-30T06:41:43.051Z,9.03
2023-12-30T06:44:11.726Z,9.00
2023-12-30T06:46:41.512Z,9.02
2023-12-30T06:49:10.158Z,9.03
2023-12-30T06:51:38.822Z,9.02
2023-12-30T06:54:09.765Z,9.02
2023-12-30T06:56:38.525Z,9.04
2023-12-30T06:59:07.027Z,9.03
2023-12-30T07:01:40.616Z,8.99
2023-12-30T07:04:09.426Z,9.00
2023-12-30T07:06:38.126Z,8.98
2023-12-30T07:09:06.732Z,9.02
2023-12-30T07:11:36.825Z,9.03
2023-12-30T07:14:05.413Z,9.01
2023-12-30T07:16:33.957Z,8.98
2023-12-30T07:19:02.621Z,8.99
2023-12-30T07:21:32.813Z,8.99
2023-12-30T07:24:01.420Z,8.93
2023-12-30T07:26:30.030Z,8.91
2023-12-30T07:29:00.529Z,8.95
2023-12-30T07:31:29.071Z,8.94
2023-12-30T07:33:58.573Z,8.95
2023-12-30T07:36:28.281Z,8.96
2023-12-30T07:38:56.785Z,8.95
2023-12-30T07:41:25.432Z,8.93
2023-12-30T07:43:53.905Z,8.92
2023-12-30T07:46:26.866Z,8.95
2023-12-30T07:48:55.609Z,8.90
2023-12-30T07:51:24.837Z,8.93
2023-12-30T07:53:53.503Z,8.93
2023-12-30T07:56:22.076Z,8.93
2023-12-30T07:58:50.552Z,8.91
2023-12-30T08:01:19.934Z,8.93
2023-12-30T08:03:50.181Z,8.91
2023-12-30T08:06:18.819Z,8.94
2023-12-30T08:08:47.416Z,8.93
2023-12-30T08:11:16.316Z,8.96
2023-12-30T08:13:44.821Z,8.94
2023-12-30T08:16:13.824Z,8.97
2023-12-30T08:18:42.402Z,9.00
2023-12-30T08:21:12.364Z,9.03
2023-12-30T08:23:40.887Z,9.03
2023-12-30T08:26:09.427Z,9.04
2023-12-30T08:28:38.134Z,9.05
2023-12-30T08:31:06.919Z,9.05
2023-12-30T08:33:35.586Z,9.07
2023-12-30T08:36:04.491Z,9.09
2023-12-30T08:38:34.431Z,9.09
2023-12-30T08:41:03.733Z,9.07
2023-12-30T08:43:32.674Z,9.12
2023-12-30T08:46:01.414Z,9.10
2023-12-30T08:48:30.174Z,9.11
2023-12-30T08:50:59.604Z,9.15
2023-12-30T08:53:28.266Z,9.15
2023-12-30T08:55:58.463Z,9.15
2023-12-30T08:58:27.179Z,9.19
2023-12-30T09:00:56.147Z,9.20
2023-12-30T09:03:24.750Z,9.23
2023-12-30T09:05:53.860Z,9.25
2023-12-30T09:08:22.312Z,9.24
2023-12-30T09:10:50.857Z,9.23
2023-12-30T09:13:20.795Z,9.21
2023-12-30T09:15:49.340Z,9.22
2023-12-30T09:18:17.989Z,9.21
2023-12-30T09:20:46.822Z,9.26
2023-12-30T09:23:15.715Z,9.31
2023-12-30T09:25:44.374Z,9.28
2023-12-30T09:28:13.073Z,9.28
2023-12-30T09:30:43.098Z,9.32
2023-12-30T09:33:12.699Z,9.31
2023-12-30T09:35:42.045Z,9.36
2023-12-30T09:38:10.633Z,9.32
2023-12-30T09:40:39.411Z,9.35
2023-12-30T09:43:14.320Z,9.36
2023-12-30T09:45:44.995Z,9.38
2023-12-30T09:48:15.401Z,9.38
2023-12-30T09:50:45.406Z,9.44
2023-12-30T09:53:13.935Z,9.46
2023-12-30T09:55:42.537Z,9.48
2023-12-30T09:58:12.269Z,9.47
2023-12-30T10:00:44.779Z,9.55
2023-12-30T10:03:14.762Z,9.51
2023-12-30T10:05:44.092Z,9.50
2023-12-30T10:08:13.011Z,9.52
2023-12-30T10:10:46.007Z,9.60
2023-12-30T10:13:16.276Z,9.63
2023-12-30T10:15:46.330Z,9.70
2023-12-30T10:18:16.761Z,9.72
2023-12-30T10:20:48.754Z,9.77
2023-12-30T10:23:17.448Z,9.82
2023-12-30T10:25:47.909Z,9.85
2023-12-30T10:28:16.869Z,9.77
2023-12-30T10:30:48.633Z,9.70
2023-12-30T10:33:18.739Z,9.70
2023-12-30T10:35:47.485Z,9.72
2023-12-30T10:38:16.699Z,9.75
2023-12-30T10:40:46.188Z,9.80
2023-12-30T10:43:14.823Z,9.82
2023-12-30T10:45:43.733Z,9.79
2023-12-30T10:48:14.086Z,9.79
2023-12-30T10:50:48.769Z,9.79
2023-12-30T10:53:29.886Z,9.80
2023-12-30T10:56:02.225Z,9.83
2023-12-30T10:58:35.613Z,9.90
2023-12-30T11:01:06.751Z,9.89
2023-12-30T11:03:37.874Z,9.87
2023-12-30T11:06:20.959Z,9.91
2023-12-30T11:08:49.565Z,9.94
2023-12-30T11:11:20.650Z,9.92
2023-12-30T11:13:49.330Z,9.95
2023-12-30T11:16:20.129Z,9.89
2023-12-30T11:18:52.836Z,9.86
2023-12-30T11:21:41.285Z,9.84
2023-12-30T11:24:13.500Z,9.84
2023-12-30T11:26:46.630Z,9.78
2023-12-30T11:29:19.260Z,9.80
2023-12-30T11:31:50.600Z,9.81
2023-12-30T11:34:21.500Z,9.81
2023-12-30T11:36:51.341Z,9.85
2023-12-30T11:39:28.390Z,9.79
2023-12-30T11:41:59.551Z,9.77
2023-12-30T11:44:30.138Z,9.74
2023-12-30T11:46:59.875Z,9.80
2023-12-30T11:49:30.454Z,9.78
2023-12-30T11:52:09.294Z,9.82
2023-12-30T11:54:41.804Z,9.79
2023-12-30T11:57:10.721Z,9.79
2023-12-30T11:59:40.384Z,9.82
2023-12-30T12:02:12.807Z,9.84
2023-12-30T12:04:43.385Z,9.79
2023-12-30T12:07:13.625Z,9.84
2023-12-30T12:09:44.325Z,9.89
2023-12-30T12:12:13.690Z,9.83
2023-12-30T12:14:51.483Z,9.84
2023-12-30T12:17:21.808Z,9.84
2023-12-30T12:19:52.954Z,9.86
2023-12-30T12:22:22.565Z,9.91
2023-12-30T12:24:51.614Z,9.91
2023-12-30T12:27:24.992Z,9.92
2023-12-30T12:29:55.690Z,9.97
2023-12-30T12:32:25.526Z,9.99
2023-12-30T12:34:55.691Z,9.99
2023-12-30T12:37:25.017Z,9.95
2023-12-30T12:39:54.143Z,9.93
2023-12-30T12:42:27.875Z,9.92
2023-12-30T12:44:59.671Z,9.96
2023-12-30T12:47:28.480Z,10.02
2023-12-30T12:49:59.192Z,10.02
2023-12-30T12:52:27.778Z,10.09
2023-12-30T12:54:59.724Z,10.10
2023-12-30T12:57:31.741Z,10.03
2023-12-30T13:00:01.341Z,10.00
2023-12-30T13:02:34.372Z,10.06
2023-12-30T13:05:05.616Z,10.06
2023-12-30T13:07:36.045Z,10.07
2023-12-30T13:10:18.358Z,10.12
2023-12-30T13:12:47.477Z,10.09
2023-12-30T13:15:20.563Z,10.08
2023-12-30T13:17:49.557Z,9.98
2023-12-30T13:20:20.056Z,10.01
2023-12-30T13:22:56.601Z,10.01
2023-12-30T13:25:27.697Z,10.01
2023-12-30T13:27:56.648Z,10.02
2023-12-30T13:30:25.443Z,10.05
2023-12-30T13:32:57.716Z,10.06
2023-12-30T13:35:35.363Z,10.08
2023-12-30T13:38:07.811Z,10.09
2023-12-30T13:40:37.585Z,10.11
2023-12-30T13:43:09.426Z,10.09
2023-12-30T13:45:40.845Z,10.11
2023-12-30T13:51:21.466Z,10.17
2023-12-30T13:53:50.135Z,10.13
2023-12-30T13:56:22.381Z,10.16
2023-12-30T13:58:52.482Z,10.07
2023-12-30T14:01:23.876Z,10.11
2023-12-30T14:03:53.860Z,10.03
2023-12-30T14:06:31.421Z,10.08
2023-12-30T14:09:04.963Z,10.09
2023-12-30T14:11:35.839Z,10.09
2023-12-30T14:14:10.511Z,10.09
2023-12-30T14:16:40.139Z,9.97
2023-12-30T14:19:09.313Z,9.96
2023-12-30T14:21:40.386Z,9.99
2023-12-30T14:24:13.138Z,10.02
2023-12-30T14:26:41.943Z,10.02
2023-12-30T14:29:10.717Z,10.02
2023-12-30T14:31:39.594Z,10.04
2023-12-30T14:34:11.135Z,10.06
2023-12-30T14:36:41.113Z,10.03
2023-12-30T14:39:11.863Z,10.06
2023-12-30T14:41:41.224Z,10.08
2023-12-30T14:44:09.771Z,10.07
2023-12-30T14:46:38.413Z,10.09
2023-12-30T14:49:06.045Z,10.06
2023-12-30T14:51:34.635Z,10.06
2023-12-30T14:54:05.306Z,10.05
2023-12-30T14:56:35.061Z,10.05
2023-12-30T14:59:03.974Z,10.04
2023-12-30T15:01:33.037Z,10.01
2023-12-30T15:04:03.696Z,9.99
2023-12-30T15:06:32.624Z,9.98
2023-12-30T15:09:05.654Z,9.94
2023-12-30T15:11:36.461Z,9.95
2023-12-30T15:14:05.757Z,9.97
2023-12-30T15:16:34.425Z,9.98
2023-12-30T15:19:03.133Z,9.93
2023-12-30T15:21:31.716Z,9.85
2023-12-30T15:24:00.427Z,9.83
2023-12-30T15:26:28.964Z,9.82
2023-12-30T15:28:58.810Z,9.84
2023-12-30T15:31:27.588Z,9.80
2023-12-30T15:33:56.095Z,9.81
2023-12-30T15:36:24.970Z,9.75
2023-12-30T15:38:53.456Z,9.65
2023-12-30T15:41:23.816Z,9.51
2023-12-30T15:43:52.380Z,9.47
2023-12-30T15:46:22.343Z,9.47
2023-12-30T15:48:50.976Z,9.49
2023-12-30T15:51:19.879Z,9.33
2023-12-30T15:53:49.454Z,9.28
2023-12-30T15:56:18.035Z,9.31
2023-12-30T15:58:46.943Z,9.16
2023-12-30T16:01:15.655Z,9.04
2023-12-30T16:03:45.582Z,9.00
2023-12-30T16:06:14.979Z,8.92
2023-12-30T16:08:43.766Z,8.83
2023-12-30T16:11:12.221Z,8.68
2023-12-30T16:13:40.953Z,8.65
2023-12-30T16:16:09.589Z,8.55
2023-12-30T16:18:38.277Z,8.57
2023-12-30T16:21:08.536Z,8.65
2023-12-30T16:23:37.365Z,8.60
2023-12-30T16:26:06.464Z,8.55
2023-12-30T16:28:36.002Z,8.48
2023-12-30T16:31:05.409Z,8.53
2023-12-30T16:33:34.149Z,8.53
2023-12-30T16:36:02.722Z,8.50
2023-12-30T16:38:32.543Z,8.43
2023-12-30T16:41:01.104Z,8.40
2023-12-30T16:43:33.904Z,8.46
2023-12-30T16:46:02.772Z,8.46
2023-12-30T16:48:31.855Z,8.53
2023-12-30T16:51:00.394Z,8.48
2023-12-30T16:53:28.816Z,8.49
2023-12-30T16:56:00.909Z,8.50
2023-12-30T16:58:31.905Z,8.51
2023-12-30T17:01:01.643Z,8.49
2023-12-30T17:03:30.236Z,8.47
2023-12-30T17:05:58.843Z,8.46
2023-12-30T17:08:27.267Z,8.34
2023-12-30T17:10:57.112Z,8.38
2023-12-30T17:13:34.818Z,8.43
2023-12-30T17:16:09.461Z,8.39
2023-12-30T17:18:38.422Z,8.44
2023-12-30T17:21:06.996Z,8.50
2023-12-30T17:23:36.077Z,8.45
2023-12-30T17:26:06.386Z,8.46
2023-12-30T17:28:35.511Z,8.43
2023-12-30T17:31:06.877Z,8.43
2023-12-30T17:33:35.511Z,8.44
2023-12-30T17:36:04.058Z,8.42
2023-12-30T17:38:32.563Z,8.39
2023-12-30T17:41:01.043Z,8.45
2023-12-30T17:43:31.073Z,8.39
2023-12-30T17:45:59.673Z,8.43
2023-12-30T17:48:28.196Z,8.46
2023-12-30T17:50:56.775Z,8.47
2023-12-30T17:53:25.738Z,8.47
2023-12-30T17:55:54.340Z,8.51
2023-12-30T17:58:22.935Z,8.48
2023-12-30T18:00:52.948Z,8.53
2023-12-30T18:03:21.595Z,8.59
2023-12-30T18:05:50.158Z,8.57
2023-12-30T18:08:18.747Z,8.54
2023-12-30T18:10:47.265Z,8.49
2023-12-30T18:13:16.318Z,8.55
2023-12-30T18:15:44.900Z,8.58
2023-12-30T18:18:14.779Z,8.54
2023-12-30T18:20:43.525Z,8.59
2023-12-30T18:23:12.005Z,8.58
2023-12-30T18:25:40.704Z,8.57
2023-12-30T18:28:09.193Z,8.59
2023-12-30T18:30:38.362Z,8.65
2023-12-30T18:33:08.037Z,8.67
2023-12-30T18:35:39.045Z,8.68
2023-12-30T18:38:07.506Z,8.66
2023-12-30T18:40:38.053Z,8.63
2023-12-30T18:43:06.641Z,8.65
2023-12-30T18:45:35.162Z,8.56
2023-12-30T18:48:04.338Z,8.61
2023-12-30T18:50:33.382Z,8.61
2023-12-30T18:53:03.702Z,8.56
2023-12-30T18:55:33.996Z,8.55
2023-12-30T18:58:02.622Z,8.62
2023-12-30T19:00:31.257Z,8.63
2023-12-30T19:03:00.096Z,8.65
2023-12-30T19:05:30.386Z,8.67
2023-12-30T19:07:59.017Z,8.63
2023-12-30T19:10:29.895Z,8.59
2023-12-30T19:12:58.585Z,8.59
2023-12-30T19:15:27.160Z,8.63
2023-12-30T19:17:55.762Z,8.68
2023-12-30T19:20:24.362Z,8.63
2023-12-30T19:22:53.144Z,8.63
2023-12-30T19:25:21.755Z,8.67
2023-12-30T19:27:52.730Z,8.72
2023-12-30T19:30:21.279Z,8.77
2023-12-30T19:32:49.938Z,8.77
2023-12-30T19:35:20.414Z,8.80
2023-12-30T19:37:49.398Z,8.79
2023-12-30T19:40:18.404Z,8.78
2023-12-30T19:42:46.909Z,8.83
2023-12-30T19:45:17.072Z,8.86
2023-12-30T19:47:45.635Z,8.89
2023-12-30T19:50:14.495Z,8.93
2023-12-30T19:52:43.257Z,8.93
2023-12-30T19:55:11.705Z,8.91
2023-12-30T19:57:40.182Z,8.93
2023-12-30T20:00:13.686Z,8.94
2023-12-30T20:02:43.896Z,8.95
2023-12-30T20:05:14.417Z,8.93
2023-12-30T20:07:43.288Z,8.95
2023-12-30T20:10:12.786Z,8.89
2023-12-30T20:12:41.546Z,8.96
2023-12-30T20:15:10.390Z,9.01
2023-12-30T20:17:39.058Z,9.07
2023-12-30T20:20:11.794Z,9.11
2023-12-30T20:22:40.320Z,9.13
2023-12-30T20:25:09.750Z,9.19
2023-12-30T20:27:38.322Z,9.18
2023-12-30T20:30:08.396Z,9.23
2023-12-30T20:32:37.876Z,9.26
2023-12-30T20:35:08.835Z,9.26
2023-12-30T20:37:37.805Z,9.27
2023-12-30T20:40:09.535Z,9.29
2023-12-30T20:42:38.734Z,9.32
2023-12-30T20:45:07.799Z,9.32
2023-12-30T20:47:36.426Z,9.33
2023-12-30T20:50:05.984Z,9.34
2023-12-30T20:52:37.722Z,9.34
2023-12-30T20:55:07.800Z,9.36
2023-12-30T20:57:36.532Z,9.37
2023-12-30T21:00:06.022Z,9.39
2023-12-30T21:02:34.427Z,9.39
2023-12-30T21:05:03.005Z,9.41
2023-12-30T21:07:31.477Z,9.42
2023-12-30T21:10:01.345Z,9.38
2023-12-30T21:12:29.821Z,9.39
2023-12-30T21:14:58.606Z,9.39
2023-12-30T21:17:27.092Z,9.40
2023-12-30T21:19:55.684Z,9.40
2023-12-30T21:22:25.286Z,9.42
2023-12-30T21:24:54.705Z,9.43
2023-12-30T21:27:24.503Z,9.43
2023-12-30T21:29:53.048Z,9.45
2023-12-30T21:32:21.615Z,9.43
2023-12-30T21:34:51.636Z,9.45
2023-12-30T21:37:20.547Z,9.45
2023-12-30T21:39:49.177Z,9.46
2023-12-30T21:42:17.653Z,9.42
2023-12-30T21:44:49.657Z,9.41
2023-12-30T21:47:18.264Z,9.40
2023-12-30T21:49:46.861Z,9.40
2023-12-30T21:52:17.549Z,9.42
2023-12-30T21:54:48.247Z,9.42
2023-12-30T21:57:16.830Z,9.44
2023-12-30T21:59:46.675Z,9.44
2023-12-30T22:02:15.376Z,9.43
2023-12-30T22:04:43.915Z,9.44
2023-12-30T22:07:12.817Z,9.44
2023-12-30T22:09:41.272Z,9.45
2023-12-30T22:12:09.795Z,9.43
2023-12-30T22:14:39.642Z,9.40
2023-12-30T22:17:11.189Z,9.38
2023-12-30T22:19:40.051Z,9.40
2023-12-30T22:22:09.239Z,9.35
2023-12-30T22:24:37.735Z,9.34
2023-12-30T22:27:06.609Z,9.37
2023-12-30T22:29:35.080Z,9.27
2023-12-30T22:32:03.780Z,9.28
2023-12-30T22:34:33.665Z,9.28
2023-12-30T22:37:02.146Z,9.21
2023-12-30T22:39:30.821Z,9.17
2023-12-30T22:41:59.964Z,9.14
2023-12-30T22:44:28.402Z,9.09
2023-12-30T22:46:57.043Z,9.06
2023-12-30T22:49:25.644Z,8.93
2023-12-30T22:51:55.607Z,8.93
2023-12-30T22:54:24.271Z,8.85
2023-12-30T22:56:52.720Z,8.87
2023-12-30T22:59:21.681Z,8.82
2023-12-30T23:01:50.248Z,8.75
2023-12-30T23:04:18.744Z,8.72
2023-12-30T23:06:48.855Z,8.72
2023-12-30T23:09:19.744Z,8.69
2023-12-30T23:11:48.329Z,8.64
2023-12-30T23:14:16.860Z,8.62
2023-12-30T23:16:46.588Z,8.53
2023-12-30T23:19:15.072Z,8.53
2023-12-30T23:21:43.588Z,8.53
2023-12-30T23:24:12.033Z,8.42
2023-12-30T23:26:42.065Z,8.40
2023-12-30T23:29:10.701Z,8.34
2023-12-30T23:31:42.369Z,8.30
2023-12-30T23:34:11.333Z,8.29
2023-12-30T23:36:39.873Z,8.28
2023-12-30T23:39:08.651Z,8.14
2023-12-30T23:41:37.126Z,8.15
2023-12-30T23:44:07.035Z,8.04
2023-12-30T23:46:35.743Z,8.01
2023-12-30T23:49:04.241Z,7.99
2023-12-30T23:51:32.697Z,7.87
2023-12-30T23:54:01.243Z,7.83
2023-12-30T23:56:29.763Z,7.75
2023-12-30T23:58:58.246Z,7.72
